createdAt,value
2023-02-03T00:02:18.418Z,50.40
2023-02-03T00:04:49.429Z,52.70
2023-02-03T00:07:21.693Z,51.50
2023-02-03T00:09:52.686Z,49.70
2023-02-03T00:12:23.302Z,49.60
2023-02-03T00:14:55.742Z,50.40
2023-02-03T00:17:26.404Z,50.00
2023-02-03T00:19:58.208Z,49.00
2023-02-03T00:22:28.801Z,48.40
2023-02-03T00:24:59.603Z,49.10
2023-02-03T00:27:31.061Z,48.20
2023-02-03T00:30:04.922Z,49.60
2023-02-03T00:32:37.243Z,50.30
2023-02-03T00:35:08.395Z,50.80
2023-02-03T00:37:38.957Z,52.60
2023-02-03T00:40:10.287Z,51.00
2023-02-03T00:42:40.952Z,52.90
2023-02-03T00:45:13.315Z,51.80
2023-02-03T00:47:44.260Z,49.20
2023-02-03T00:50:15.326Z,49.60
2023-02-03T00:52:45.895Z,49.20
2023-02-03T00:55:16.687Z,47.90
2023-02-03T00:57:47.300Z,47.10
2023-02-03T01:00:21.027Z,49.20
2023-02-03T01:02:51.953Z,48.20
2023-02-03T01:05:22.921Z,48.60
2023-02-03T01:07:53.698Z,50.70
2023-02-03T01:10:26.381Z,51.80
2023-02-03T01:12:57.174Z,49.40
2023-02-03T01:15:27.965Z,48.40
2023-02-03T01:17:58.615Z,48.80
2023-02-03T01:20:36.869Z,49.30
2023-02-03T01:23:07.564Z,50.80
2023-02-03T01:25:39.289Z,49.70
2023-02-03T01:28:09.993Z,50.20
2023-02-03T01:30:41.075Z,49.20
2023-02-03T01:33:11.725Z,50.50
2023-02-03T01:35:42.548Z,50.30
2023-02-03T01:38:13.137Z,49.30
2023-02-03T01:40:49.823Z,47.00
2023-02-03T01:43:38.305Z,45.80
2023-02-03T01:46:39.906Z,48.10
2023-02-03T01:49:27.604Z,49.30
2023-02-03T01:51:58.860Z,46.60
2023-02-03T01:54:39.609Z,48.00
2023-02-03T01:57:24.367Z,45.60
2023-02-03T01:59:58.930Z,44.70
2023-02-03T02:02:29.985Z,47.30
2023-02-03T02:05:09.441Z,47.00
2023-02-03T02:07:42.891Z,46.60
2023-02-03T02:10:13.693Z,45.10
2023-02-03T02:12:44.652Z,45.30
2023-02-03T02:15:16.162Z,46.00
2023-02-03T02:18:30.661Z,45.60
2023-02-03T02:21:38.527Z,47.80
2023-02-03T02:24:42.531Z,49.00
2023-02-03T02:27:13.143Z,49.70
2023-02-03T02:29:55.879Z,44.40
2023-02-03T02:32:29.487Z,47.10
2023-02-03T02:35:30.697Z,46.70
2023-02-03T02:38:26.251Z,46.90
2023-02-03T02:41:35.050Z,47.60
2023-02-03T02:44:25.354Z,47.40
2023-02-03T02:47:04.973Z,47.60
2023-02-03T02:49:58.541Z,45.30
2023-02-03T02:52:32.615Z,46.00
2023-02-03T02:55:27.943Z,46.60
2023-02-03T02:58:03.894Z,44.00
2023-02-03T03:00:36.651Z,44.60
2023-02-03T03:03:27.557Z,44.30
2023-02-03T03:06:10.614Z,42.50
2023-02-03T03:08:52.447Z,44.30
2023-02-03T03:11:23.046Z,44.00
2023-02-03T03:13:56.455Z,43.00
2023-02-03T03:16:30.167Z,42.10
2023-02-03T03:19:07.994Z,42.20
2023-02-03T03:21:47.473Z,42.40
2023-02-03T03:24:22.761Z,42.30
2023-02-03T03:26:59.282Z,43.20
2023-02-03T03:29:41.589Z,43.50
2023-02-03T03:32:12.590Z,45.80
2023-02-03T03:34:44.788Z,44.10
2023-02-03T03:37:26.434Z,43.30
2023-02-03T03:40:02.375Z,41.60
2023-02-03T03:43:17.077Z,42.30
2023-02-03T03:45:57.886Z,43.30
2023-02-03T03:48:38.007Z,44.40
2023-02-03T03:51:23.930Z,43.30
2023-02-03T03:53:56.859Z,45.30
2023-02-03T03:56:40.065Z,47.30
2023-02-03T03:59:14.939Z,46.70
2023-02-03T04:01:46.794Z,44.60
2023-02-03T04:04:22.333Z,46.90
2023-02-03T04:06:52.543Z,47.10
2023-02-03T04:09:22.962Z,46.90
2023-02-03T04:12:06.492Z,45.20
2023-02-03T04:14:42.799Z,46.10
2023-02-03T04:17:13.047Z,47.50
2023-02-03T04:19:43.936Z,47.30
2023-02-03T04:22:14.585Z,47.40
2023-02-03T04:24:45.513Z,47.50
2023-02-03T04:27:16.174Z,45.80
2023-02-03T04:29:46.801Z,48.80
2023-02-03T04:32:17.635Z,48.30
2023-02-03T04:34:48.628Z,46.70
2023-02-03T04:37:19.269Z,45.60
2023-02-03T04:39:51.473Z,46.70
2023-02-03T04:42:22.265Z,46.20
2023-02-03T04:44:53.047Z,46.30
2023-02-03T04:47:24.041Z,44.90
2023-02-03T04:49:54.599Z,45.30
2023-02-03T04:52:25.412Z,46.20
2023-02-03T04:54:56.167Z,46.20
2023-02-03T04:57:26.787Z,44.10
2023-02-03T04:59:57.320Z,44.80
2023-02-03T05:02:28.056Z,44.00
2023-02-03T05:04:58.709Z,43.60
2023-02-03T05:07:29.539Z,48.70
2023-02-03T05:10:00.261Z,45.60
2023-02-03T05:12:31.021Z,46.60
2023-02-03T05:15:01.318Z,47.10
2023-02-03T05:17:32.950Z,47.30
2023-02-03T05:20:03.946Z,46.70
2023-02-03T05:22:37.322Z,47.40
2023-02-03T05:25:08.802Z,46.20
2023-02-03T05:27:42.421Z,46.20
2023-02-03T05:30:15.060Z,48.80
2023-02-03T05:32:45.722Z,46.10
2023-02-03T05:35:16.634Z,45.80
2023-02-03T05:37:50.133Z,46.70
2023-02-03T05:40:38.742Z,45.10
2023-02-03T05:43:10.218Z,45.80
2023-02-03T05:45:42.572Z,44.40
2023-02-03T05:48:13.951Z,45.10
2023-02-03T05:50:44.657Z,46.80
2023-02-03T05:53:15.781Z,44.50
2023-02-03T05:55:50.934Z,45.50
2023-02-03T05:58:22.060Z,44.70
2023-02-03T06:00:53.101Z,45.70
2023-02-03T06:03:23.688Z,45.20
2023-02-03T06:05:54.103Z,45.40
2023-02-03T06:08:33.813Z,46.80
2023-02-03T06:11:04.494Z,45.50
2023-02-03T06:13:35.503Z,47.00
2023-02-03T06:16:07.842Z,46.20
2023-02-03T06:18:40.097Z,45.20
2023-02-03T06:21:11.085Z,45.70
2023-02-03T06:23:42.509Z,43.20
2023-02-03T06:26:13.405Z,46.00
2023-02-03T06:28:44.581Z,45.70
2023-02-03T06:31:15.361Z,45.80
2023-02-03T06:33:46.555Z,47.90
2023-02-03T06:36:17.219Z,46.50
2023-02-03T06:38:47.876Z,46.40
2023-02-03T06:41:18.640Z,46.30
2023-02-03T06:43:51.704Z,46.20
2023-02-03T06:46:22.529Z,45.50
2023-02-03T06:48:53.367Z,46.60
2023-02-03T06:51:26.852Z,44.80
2023-02-03T06:53:57.565Z,46.50
2023-02-03T06:56:30.089Z,47.00
2023-02-03T06:59:01.108Z,47.10
2023-02-03T07:01:31.884Z,45.80
2023-02-03T07:04:03.112Z,46.80
2023-02-03T07:06:36.340Z,46.20
2023-02-03T07:09:08.879Z,46.20
2023-02-03T07:11:39.483Z,47.10
2023-02-03T07:14:10.333Z,45.40
2023-02-03T07:16:42.308Z,48.00
2023-02-03T07:19:13.972Z,46.40
2023-02-03T07:21:46.228Z,46.60
2023-02-03T07:24:19.701Z,46.30
2023-02-03T07:26:51.878Z,46.10
2023-02-03T07:29:22.387Z,46.70
2023-02-03T07:31:55.437Z,46.30
2023-02-03T07:34:26.725Z,47.00
2023-02-03T07:36:57.852Z,46.80
2023-02-03T07:39:30.815Z,46.90
2023-02-03T07:42:02.861Z,47.40
2023-02-03T07:44:34.165Z,47.40
2023-02-03T07:47:06.276Z,46.10
2023-02-03T07:49:37.731Z,47.60
2023-02-03T07:52:08.859Z,45.80
2023-02-03T07:54:40.081Z,45.60
2023-02-03T07:57:10.732Z,45.30
2023-02-03T07:59:45.390Z,47.20
2023-02-03T08:02:16.565Z,47.10
2023-02-03T08:04:47.732Z,45.90
2023-02-03T08:07:18.525Z,46.10
2023-02-03T08:09:50.456Z,46.90
2023-02-03T08:12:21.180Z,45.70
2023-02-03T08:14:51.939Z,46.50
2023-02-03T08:17:23.663Z,46.20
2023-02-03T08:19:55.513Z,46.40
2023-02-03T08:22:27.157Z,47.10
2023-02-03T08:24:57.832Z,47.20
2023-02-03T08:27:28.529Z,46.60
2023-02-03T08:29:59.327Z,46.90
2023-02-03T08:32:32.062Z,47.60
2023-02-03T08:35:02.973Z,47.40
2023-02-03T08:37:34.682Z,47.90
2023-02-03T08:40:06.009Z,48.90
2023-02-03T08:42:36.866Z,48.70
2023-02-03T08:45:08.565Z,48.70
2023-02-03T08:47:40.062Z,47.70
2023-02-03T08:50:14.139Z,48.40
2023-02-03T08:52:44.820Z,49.20
2023-02-03T08:55:15.638Z,50.30
2023-02-03T08:57:46.834Z,49.60
2023-02-03T09:00:18.597Z,49.60
2023-02-03T09:02:49.722Z,49.50
2023-02-03T09:05:21.219Z,49.90
2023-02-03T09:07:51.954Z,49.80
2023-02-03T09:10:24.048Z,50.70
2023-02-03T09:12:55.727Z,51.30
2023-02-03T09:15:29.970Z,50.80
2023-02-03T09:18:03.849Z,51.80
2023-02-03T09:20:35.413Z,50.90
2023-02-03T09:23:07.757Z,52.40
2023-02-03T09:25:39.734Z,52.20
2023-02-03T09:28:11.258Z,51.70
2023-02-03T09:30:42.424Z,51.80
2023-02-03T09:33:13.661Z,53.00
2023-02-03T09:35:46.103Z,52.80
2023-02-03T09:38:20.716Z,53.60
2023-02-03T09:41:17.316Z,53.70
2023-02-03T09:44:08.605Z,54.20
2023-02-03T09:46:51.103Z,55.20
2023-02-03T09:49:29.481Z,54.90
2023-02-03T09:52:11.481Z,54.90
2023-02-03T09:55:06.728Z,54.00
2023-02-03T09:57:51.851Z,55.30
2023-02-03T10:00:33.727Z,55.90
2023-02-03T10:03:18.014Z,57.50
2023-02-03T10:06:16.529Z,57.10
2023-02-03T10:09:00.528Z,57.00
2023-02-03T10:11:55.342Z,58.00
2023-02-03T10:15:04.234Z,58.00
2023-02-03T10:17:45.956Z,58.90
2023-02-03T10:20:45.634Z,58.40
2023-02-03T10:23:24.602Z,58.20
2023-02-03T10:26:01.314Z,58.10
2023-02-03T10:28:38.409Z,59.00
2023-02-03T10:31:37.167Z,59.70
2023-02-03T10:34:20.980Z,59.10
2023-02-03T10:37:00.506Z,59.80
2023-02-03T10:39:53.024Z,59.70
2023-02-03T10:42:25.952Z,59.00
2023-02-03T10:45:02.501Z,59.80
2023-02-03T10:47:41.505Z,60.10
2023-02-03T10:50:24.440Z,60.00
2023-02-03T10:53:14.928Z,60.60
2023-02-03T10:55:47.092Z,60.10
2023-02-03T10:58:31.251Z,61.00
2023-02-03T11:01:19.707Z,60.10
2023-02-03T11:04:07.539Z,60.30
2023-02-03T11:06:38.834Z,60.40
2023-02-03T11:09:45.422Z,61.70
2023-02-03T11:12:21.482Z,61.70
2023-02-03T11:14:55.603Z,61.60
2023-02-03T11:17:32.778Z,62.40
2023-02-03T11:20:19.931Z,63.60
2023-02-03T11:22:51.994Z,62.00
2023-02-03T11:25:34.960Z,62.30
2023-02-03T11:28:10.699Z,61.10
2023-02-03T11:30:41.715Z,60.60
2023-02-03T11:33:26.447Z,59.50
2023-02-03T11:36:02.694Z,59.50
2023-02-03T11:38:38.730Z,59.20
2023-02-03T11:41:09.403Z,60.40
2023-02-03T11:43:40.089Z,59.80
2023-02-03T11:46:12.082Z,59.90
2023-02-03T11:48:57.607Z,59.90
2023-02-03T11:51:41.842Z,60.50
2023-02-03T11:54:49.761Z,60.50
2023-02-03T11:57:47.432Z,60.00
2023-02-03T12:00:37.336Z,61.10
2023-02-03T12:03:42.950Z,61.20
2023-02-03T12:06:13.545Z,62.20
2023-02-03T12:09:01.396Z,62.30
2023-02-03T12:11:40.944Z,62.60
2023-02-03T12:14:35.973Z,63.60
2023-02-03T12:17:24.272Z,62.30
2023-02-03T12:20:20.707Z,63.20
2023-02-03T12:23:24.650Z,63.50
2023-02-03T12:26:02.403Z,64.40
2023-02-03T12:28:46.377Z,64.00
2023-02-03T12:31:58.281Z,65.30
2023-02-03T12:34:51.685Z,65.70
2023-02-03T12:37:45.262Z,66.20
2023-02-03T12:40:22.726Z,67.30
2023-02-03T12:43:07.280Z,67.30
2023-02-03T12:45:41.867Z,67.30
2023-02-03T12:48:28.193Z,67.30
2023-02-03T12:51:09.640Z,68.60
2023-02-03T12:53:55.794Z,68.00
2023-02-03T12:56:33.056Z,68.90
2023-02-03T12:59:25.256Z,68.80
2023-02-03T13:01:59.877Z,69.30
2023-02-03T13:04:43.746Z,69.10
2023-02-03T13:07:32.735Z,69.00
2023-02-03T13:10:09.351Z,69.20
2023-02-03T13:12:48.335Z,68.70
2023-02-03T13:15:22.011Z,69.10
2023-02-03T13:18:01.633Z,69.30
2023-02-03T13:20:38.083Z,68.90
2023-02-03T13:23:12.722Z,70.30
2023-02-03T13:26:08.810Z,69.50
2023-02-03T13:28:53.374Z,69.60
2023-02-03T13:31:42.077Z,69.50
2023-02-03T13:34:52.915Z,70.40
2023-02-03T13:37:28.367Z,69.40
2023-02-03T13:40:32.591Z,69.30
2023-02-03T13:43:10.757Z,69.60
2023-02-03T13:45:49.575Z,69.10
2023-02-03T13:48:33.756Z,67.90
2023-02-03T13:51:23.509Z,68.70
2023-02-03T13:54:02.950Z,69.10
2023-02-03T13:56:35.377Z,70.20
2023-02-03T13:59:18.732Z,68.40
2023-02-03T14:01:49.626Z,68.20
2023-02-03T14:04:29.915Z,68.40
2023-02-03T14:07:07.009Z,69.70
2023-02-03T14:09:41.500Z,68.10
2023-02-03T14:12:36.290Z,69.60
2023-02-03T14:15:33.775Z,69.60
2023-02-03T14:18:28.430Z,66.40
2023-02-03T14:21:15.575Z,66.10
2023-02-03T14:23:51.869Z,66.80
2023-02-03T14:26:46.201Z,68.30
2023-02-03T14:29:33.361Z,66.10
2023-02-03T14:32:08.698Z,66.20
2023-02-03T14:34:42.620Z,66.60
2023-02-03T14:37:31.792Z,66.20
2023-02-03T14:40:23.942Z,67.00
2023-02-03T14:43:10.094Z,66.40
2023-02-03T14:46:34.764Z,66.40
2023-02-03T14:49:17.504Z,67.00
2023-02-03T14:52:10.964Z,66.20
2023-02-03T14:55:23.104Z,67.60
2023-02-03T14:58:00.377Z,67.80
2023-02-03T15:00:35.707Z,67.40
2023-02-03T15:03:12.650Z,67.60
2023-02-03T15:05:53.265Z,68.10
2023-02-03T15:08:35.459Z,67.70
2023-02-03T15:11:29.185Z,67.40
2023-02-03T15:14:19.513Z,67.90
2023-02-03T15:16:56.110Z,69.00
2023-02-03T15:19:30.758Z,68.50
2023-02-03T15:22:01.473Z,70.50
2023-02-03T15:24:39.660Z,70.40
2023-02-03T15:27:28.138Z,70.00
2023-02-03T15:30:01.902Z,69.70
2023-02-03T15:32:37.818Z,69.00
2023-02-03T15:35:16.576Z,69.80
2023-02-03T15:37:55.767Z,70.20
2023-02-03T15:40:30.786Z,70.60
2023-02-03T15:43:22.717Z,70.20
2023-02-03T15:46:14.903Z,70.20
2023-02-03T15:48:55.535Z,70.90
2023-02-03T15:51:31.803Z,71.30
2023-02-03T15:54:43.287Z,70.90
2023-02-03T15:57:36.671Z,71.40
2023-02-03T16:00:31.992Z,71.10
2023-02-03T16:03:04.694Z,72.10
2023-02-03T16:05:42.277Z,72.20
2023-02-03T16:08:44.544Z,72.30
2023-02-03T16:11:29.162Z,73.30
2023-02-03T16:14:05.631Z,73.10
2023-02-03T16:17:02.521Z,73.90
2023-02-03T16:19:36.689Z,74.40
2023-02-03T16:22:07.499Z,73.40
2023-02-03T16:24:48.067Z,73.50
2023-02-03T16:27:31.059Z,74.10
2023-02-03T16:30:28.593Z,74.70
2023-02-03T16:33:31.155Z,74.50
2023-02-03T16:36:29.589Z,75.40
2023-02-03T16:39:21.833Z,75.00
2023-02-03T16:42:10.599Z,75.30
2023-02-03T16:44:59.357Z,76.00
2023-02-03T16:47:50.790Z,75.60
2023-02-03T16:50:41.777Z,75.80
2023-02-03T16:53:24.490Z,76.40
2023-02-03T16:55:57.339Z,76.90
2023-02-03T16:58:28.624Z,77.40
2023-02-03T17:01:02.068Z,77.20
2023-02-03T17:03:34.999Z,77.50
2023-02-03T17:06:11.024Z,77.10
2023-02-03T17:08:43.991Z,78.40
2023-02-03T17:11:19.308Z,77.40
2023-02-03T17:13:51.154Z,77.30
2023-02-03T17:16:28.313Z,78.60
2023-02-03T17:19:00.291Z,79.00
2023-02-03T17:21:32.357Z,79.10
2023-02-03T17:24:03.291Z,78.90
2023-02-03T17:26:36.312Z,78.70
2023-02-03T17:29:07.457Z,78.80
2023-02-03T17:31:39.289Z,79.20
2023-02-03T17:34:09.985Z,78.80
2023-02-03T17:36:40.696Z,78.70
2023-02-03T17:55:36.169Z,79.20
2023-02-03T17:58:06.874Z,79.90
2023-02-03T18:00:37.702Z,79.80
2023-02-03T18:03:08.676Z,80.10
2023-02-03T18:05:43.014Z,80.00
2023-02-03T18:08:20.596Z,79.70
2023-02-03T18:10:55.318Z,79.10
2023-02-03T18:13:29.214Z,80.60
2023-02-03T18:16:00.293Z,79.50
2023-02-03T18:18:31.436Z,79.70
2023-02-03T18:21:02.246Z,80.20
2023-02-03T18:23:35.453Z,80.20
2023-02-03T18:26:07.422Z,79.50
2023-02-03T18:28:38.797Z,79.80
2023-02-03T18:31:13.909Z,79.50
2023-02-03T18:33:46.226Z,80.10
2023-02-03T18:36:18.956Z,79.80
2023-02-03T18:38:51.664Z,80.20
2023-02-03T18:41:25.313Z,80.00
2023-02-03T18:43:56.215Z,80.00
2023-02-03T18:46:32.329Z,81.20
2023-02-03T18:49:03.517Z,80.60
2023-02-03T18:51:34.255Z,81.50
2023-02-03T18:54:06.275Z,81.20
2023-02-03T18:56:39.628Z,81.10
2023-02-03T18:59:16.896Z,81.90
2023-02-03T19:01:48.670Z,83.70
2023-02-03T19:04:19.444Z,83.40
2023-02-03T19:06:50.252Z,83.40
2023-02-03T19:09:23.920Z,83.50
2023-02-03T19:11:55.928Z,83.70
2023-02-03T19:14:27.925Z,83.80
2023-02-03T19:16:58.692Z,84.10
2023-02-03T19:19:29.481Z,83.50
2023-02-03T19:22:00.617Z,83.20
2023-02-03T19:24:31.317Z,82.60
2023-02-03T19:27:01.976Z,83.60
2023-02-03T19:29:32.695Z,83.00
2023-02-03T19:32:03.672Z,83.50
2023-02-03T19:34:34.655Z,83.10
2023-02-03T19:37:05.327Z,83.70
2023-02-03T19:39:36.164Z,83.20
2023-02-03T19:42:07.188Z,83.90
2023-02-03T19:44:39.118Z,82.60
2023-02-03T19:47:11.391Z,83.30
2023-02-03T19:49:42.306Z,83.20
2023-02-03T19:52:13.011Z,83.40
2023-02-03T19:54:43.867Z,83.40
2023-02-03T19:57:15.497Z,83.10
2023-02-03T19:59:46.144Z,83.10
2023-02-03T20:02:18.041Z,83.60
2023-02-03T20:04:50.491Z,83.10
2023-02-03T20:07:21.424Z,82.80
2023-02-03T20:09:52.239Z,82.80
2023-02-03T20:12:22.994Z,83.00
2023-02-03T20:14:54.100Z,82.40
2023-02-03T20:17:25.041Z,82.40
2023-02-03T20:19:56.099Z,81.20
2023-02-03T20:22:26.886Z,81.10
2023-02-03T20:24:59.125Z,81.60
2023-02-03T20:27:31.116Z,81.90
2023-02-03T20:30:02.008Z,80.80
2023-02-03T20:32:34.630Z,81.40
2023-02-03T20:35:08.661Z,81.10
2023-02-03T20:37:39.361Z,82.70
2023-02-03T20:40:21.514Z,81.30
2023-02-03T20:42:56.903Z,80.90
2023-02-03T20:45:27.927Z,81.50
2023-02-03T20:47:59.844Z,80.50
2023-02-03T20:50:41.450Z,80.50
2023-02-03T20:53:20.649Z,80.50
2023-02-03T20:55:52.421Z,80.10
2023-02-03T20:58:31.053Z,80.10
2023-02-03T21:01:04.201Z,79.60
2023-02-03T21:03:54.429Z,79.10
2023-02-03T21:06:26.010Z,78.50
2023-02-03T21:08:56.744Z,78.80
2023-02-03T21:11:29.489Z,77.80
2023-02-03T21:14:00.518Z,78.10
2023-02-03T21:16:41.380Z,78.50
2023-02-03T21:19:19.664Z,79.20
2023-02-03T21:21:54.303Z,77.90
2023-02-03T21:24:34.146Z,76.90
2023-02-03T21:27:05.537Z,77.10
2023-02-03T21:29:38.969Z,77.30
2023-02-03T21:32:16.941Z,75.20
2023-02-03T21:34:50.214Z,75.10
2023-02-03T21:37:25.860Z,74.30
2023-02-03T21:39:56.601Z,74.30
2023-02-03T21:42:45.415Z,71.20
2023-02-03T21:45:19.626Z,71.50
2023-02-03T21:47:53.022Z,71.00
2023-02-03T21:50:36.523Z,70.10
2023-02-03T21:53:14.677Z,69.60
2023-02-03T21:55:47.810Z,69.80
2023-02-03T21:58:32.905Z,69.40
2023-02-03T22:01:08.731Z,65.90
2023-02-03T22:03:46.476Z,66.00
2023-02-03T22:06:17.166Z,63.20
2023-02-03T22:08:53.890Z,62.70
2023-02-03T22:11:26.999Z,62.70
2023-02-03T22:13:58.426Z,60.30
2023-02-03T22:16:32.218Z,60.40
2023-02-03T22:19:04.956Z,59.80
2023-02-03T22:21:36.973Z,59.20
2023-02-03T22:24:08.196Z,57.40
2023-02-03T22:26:39.177Z,56.00
2023-02-03T22:29:12.030Z,55.80
2023-02-03T22:31:45.853Z,53.70
2023-02-03T22:34:18.611Z,52.80
2023-02-03T22:36:49.274Z,53.20
2023-02-03T22:39:19.933Z,53.30
2023-02-03T22:41:50.676Z,52.80
2023-02-03T22:44:22.358Z,50.30
2023-02-03T22:46:54.273Z,49.70
2023-02-03T22:49:24.850Z,49.70
2023-02-03T22:51:55.600Z,50.50
2023-02-03T22:54:27.232Z,49.70
2023-02-03T22:56:58.009Z,49.60
2023-02-03T22:59:28.316Z,49.70
2023-02-03T23:02:00.652Z,51.20
2023-02-03T23:04:31.435Z,51.20
2023-02-03T23:07:02.227Z,51.30
2023-02-03T23:09:34.116Z,50.70
2023-02-03T23:12:04.903Z,49.80
2023-02-03T23:14:35.991Z,50.80
2023-02-03T23:17:06.774Z,51.20
2023-02-03T23:19:37.481Z,50.90
2023-02-03T23:22:08.242Z,51.00
2023-02-03T23:24:38.967Z,53.30
2023-02-03T23:27:10.948Z,51.80
2023-02-03T23:29:41.875Z,51.70
2023-02-03T23:32:17.057Z,51.50
2023-02-03T23:35:05.435Z,52.40
2023-02-03T23:37:36.303Z,50.90
2023-02-03T23:40:09.332Z,50.10
2023-02-03T23:42:39.991Z,49.70
2023-02-03T23:45:14.043Z,50.40
2023-02-03T23:47:46.374Z,50.90
2023-02-03T23:50:19.237Z,51.00
2023-02-03T23:52:51.779Z,51.10
2023-02-03T23:55:24.080Z,50.50
2023-02-03T23:57:56.021Z,49.60
